Leadville, CO

11:13 AM MDT on September 21, 2014 (GMT -0600)
Lake County | Change Station
CLOSE
Current Station
Airport
Location: Leadville,
Elevation: 9928 ft
Nearby Weather Stations

Elev 9928 ft 39.23 °N, 106.32 °W | Updated 20 minutes ago

Overcast
Overcast
53 °F
Feels Like 53 °F
N
14
Wind Variable Wind from South

Today
High -- | Low -- °F
--% Chance of Precip.
Yesterday
High -- | Low -- °F
Precip. -- in
6:51 AM 7:03 PM
Waning Crescent, 6% visible
Pressure 30.15 in
Visibility 10.0 miles
Clouds Few 3700 ft
Few 8000 ft
Dew Point 44 °F
Humidity 71%
Rainfall 0.00 in
Snow Depth 0 in , 0 in , 0 in
UV 6 out of 12
Pollen 6.60 out of 12
Air Quality Not available.
Flu Activity Not available.
METAR KLXV 211653Z AUTO 18012KT 10SM FEW037 FEW080 12/07 A3059 RMK AO2 SLP209 T01170067

More Conditions Fewer Conditions

Pressure 30.15 in
Visibility 10.0 miles
Clouds Few 3700 ft
Few 8000 ft
Dew Point 44 °F
Humidity 71%
Rainfall 0.00 in
Snow Depth 0 in , 0 in , 0 in
UV 6 out of 12
Pollen 6.60 out of 12
Air Quality Not available.
Flu Activity Not available.
METAR KLXV 211653Z AUTO 18012KT 10SM FEW037 FEW080 12/07 A3059 RMK AO2 SLP209 T01170067

More Conditions Fewer Conditions

10-Day Weather Forecast

Almanac

Astronomy

Sep. 21, 2014 Rise Set
Actual Time 6:51 AM MDT 7:03 PM MDT
Civil Twilight 6:24 AM MDT 7:30 PM MDT
Nautical Twilight 5:53 AM MDT 8:01 PM MDT
Astronomical Twilight 5:21 AM MDT 8:33 PM MDT
Moon 4:28 AM MDT 5:40 PM MDT
Length of Visible Light 13h 05m
Length of Day
12h 11m
Tomorrow will be 2m 32s shorter.
Waning Crescent, 6% of the Moon is Illuminated
Today
Waning Crescent
Sep 24
New
Oct 1
First Quarter
Oct 8
Full
Oct 15
Last Quarter

Today's Extremes

State Highs State Lows

Community

WunderPhotos

Upload Photos

1,755,197 photos uploaded!

WunderBlogs® & News

Nearby

Snow Depth

Station Depth Elevation
McClure Pass 0 in 9500 ft
Rabbit Ears 0 in 9400 ft
Ute Creek 0 in 10650 ft
Bison Lake 0 in 10880 ft
Butte 0 in 10160 ft

Earthquake Activity

City Distance Mag. Time & Date
No recent earthquake activity has been reported nearby.
Minimum magnitude displayed is 2.5.

Coastal Water Temperatures

Place Temperature
No Stations Reporting

Nearby Weather Stations